DK-0002 weather

Orø Flyveplads
Capital Region, Denmark

Public forecast

Using degrees Celsius for public forecast. Weather courtesy of forecast.io.

METAR (pilot weather report)

Closest report is Copenhagen Roskilde Airport, 15.6 nm (28.8 km) SE. Retrieved 2019/09/16 23:20 UTC (5 minutes ago):

EKRK 162320Z AUTO 27008KT 9999 NCD 10/07 Q1012

TAF (pilot weather forecast)

Closest forecast is Copenhagen Kastrup Airport, 29.3 nm (54.3 km) ESE. Retrieved 2019/09/16 18:30 UTC (5 hours ago):

TAF EKCH 161702Z 1618/1718 29015KT 9999 SCT040 TEMPO 1621/1703 SHRA SCT020TCU TEMPO 1703/1715 29018G32KT SHRA BKN020CB